Anaktuvuk Pass, AK

2:42 PM AKDT on May 30, 2015 (GMT -0800)
Anaktuvuk Pass | | Change Station
CLOSE
Current Station
Airport
Location: Anaktuvuk Pass,
Elevation: 2103 ft
Nearby Weather Stations
Active Advisory: Areal Flood Advisory

Elev 2103 ft 68.13 °N, 151.74 °W | Updated 6 minutes ago

Clear
Clear
48 °F
Feels Like 48 °F
N
17
Wind Variable Wind from NE
Gusts 22 mph

Today
High -- | Low -- °F
--% Chance of Precip.
Yesterday
High -- | Low -- °F
Precip. -- in
2:36 AM 1:32 AM
Waxing Gibbous, 92% visible
Pressure 30.23 in
Visibility 10.0 miles
Clouds Clear
Dew Point 32 °F
Humidity 54%
Rainfall 0.00 in
Snow Depth Not available.
UV 6 out of 12
Pollen Not available.
Air Quality Not available.
Flu Activity Sporadic
METAR PAKP 302236Z AUTO 04015G19KT 10SM CLR 09/00 A3023 RMK AO1

More Conditions Fewer Conditions

Pressure 30.23 in
Visibility 10.0 miles
Clouds Clear
Dew Point 32 °F
Humidity 54%
Rainfall 0.00 in
Snow Depth Not available.
UV 6 out of 12
Pollen Not available.
Air Quality Not available.
Flu Activity Sporadic
METAR PAKP 302236Z AUTO 04015G19KT 10SM CLR 09/00 A3023 RMK AO1

More Conditions Fewer Conditions

10-Day Weather Forecast

Almanac

Astronomy

May. 30, 2015 Rise Set
Actual Time
Civil Twilight
Nautical Twilight
Astronomical Twilight
Moon
Length of Visible Light
Length of Day
Tomorrow will be .
, % of the Moon is Illuminated

Today's Extremes

State Highs State Lows

Community

WunderPhotos

Upload Photos

1,825,609 photos uploaded!

WunderBlogs® & News

Nearby

Air Quality

  Air Quality AQ Index Pollutant
Not available.

Snow Depth

Station Depth Elevation

Earthquake Activity

City Distance Mag. Time & Date
Minimum magnitude displayed is 2.5.

Coastal Water Temperatures

Place Temperature

Stations

Nearby Weather Stations

Station Location Temp. Windchill Dew Point Humidity Wind Precip. Elev Updated Type
                   
Areal Flood Advisory
Statement as of 10:34 AM AKDT on May 30, 2015

... The Flood Advisory remains in effect until 315 PM akdt Sunday for
The Sag river between pump station 3 and deadhorse...

The Sag river crested at pump station 3 around 6 PM Friday evening
and is below flood stage this morning. At 10 am Saturday... the flood
crest was well downstream from pump 3... but had not reached the
flooded portion of the Dalton Highway near deadhorse. Rising water
levels are expected there until the crest reaches the area tonight.

Precautionary/preparedness actions...

A Flood Advisory means river or stream flows are elevated... or
ponding of water in urban or other areas is occurring or is imminent.


Lat... Lon 7021 14827 6998 14853 6984 14864 6942 14843
      6936 14857 6924 14864 6898 14875 6875 14873
      6876 14891 6900 14890 6933 14878 6946 14860
      6981 14882 6997 14873 7022 14846

Djh may 2015